createdAt,value
2022-12-07T00:01:31.319Z,100093.22
2022-12-07T00:04:05.203Z,100098.25
2022-12-07T00:06:33.088Z,100092.44
2022-12-07T00:08:59.710Z,100088.41
2022-12-07T00:11:26.611Z,100081.88
2022-12-07T00:14:00.277Z,100091.50
2022-12-07T00:16:31.524Z,100076.06
2022-12-07T00:18:58.197Z,100076.72
2022-12-07T00:21:30.135Z,100070.66
2022-12-07T00:23:57.357Z,100068.63
2022-12-07T00:26:26.374Z,100067.69
2022-12-07T00:28:56.613Z,100070.38
2022-12-07T00:31:27.697Z,100077.75
2022-12-07T00:33:54.391Z,100061.22
2022-12-07T00:36:26.893Z,100069.34
2022-12-07T00:38:55.092Z,100064.69
2022-12-07T00:41:25.035Z,100068.16
2022-12-07T00:43:52.141Z,100068.53
2022-12-07T00:46:19.791Z,100062.84
2022-12-07T00:48:46.644Z,100059.50
2022-12-07T00:51:16.880Z,100066.13
2022-12-07T00:53:43.575Z,100061.53
2022-12-07T00:56:14.940Z,100055.22
2022-12-07T00:58:41.858Z,100057.59
2022-12-07T01:01:09.938Z,100052.69
2022-12-07T01:03:36.732Z,100054.41
2022-12-07T01:06:03.844Z,100051.53
2022-12-07T01:08:31.751Z,100048.47
2022-12-07T01:11:07.431Z,100040.47
2022-12-07T01:13:35.129Z,100027.81
2022-12-07T01:16:03.273Z,100034.22
2022-12-07T01:18:32.235Z,100036.81
2022-12-07T01:21:06.323Z,100041.84
2022-12-07T01:23:33.509Z,100038.56
2022-12-07T01:26:02.340Z,100040.56
2022-12-07T01:28:29.237Z,100033.75
2022-12-07T01:31:09.263Z,100021.06
2022-12-07T01:33:37.245Z,100022.22
2022-12-07T01:36:22.479Z,100029.03
2022-12-07T01:38:52.522Z,100025.09
2022-12-07T01:41:22.192Z,100019.16
2022-12-07T01:44:14.886Z,100009.53
2022-12-07T01:46:45.377Z,100027.41
2022-12-07T01:49:19.813Z,100020.59
2022-12-07T01:51:47.866Z,100023.00
2022-12-07T01:54:15.922Z,100016.19
2022-12-07T01:56:45.355Z,100017.03
2022-12-07T01:59:11.885Z,100018.19
2022-12-07T02:01:38.416Z,100008.84
2022-12-07T02:04:06.294Z,100011.94
2022-12-07T02:06:32.795Z,100001.16
2022-12-07T02:09:00.589Z,100001.66
2022-12-07T02:11:27.096Z,100005.31
2022-12-07T02:13:57.312Z,99996.06
2022-12-07T02:16:29.698Z,99992.13
2022-12-07T02:19:14.351Z,99988.84
2022-12-07T02:21:52.270Z,99983.00
2022-12-07T02:24:43.483Z,99979.34
2022-12-07T02:27:38.104Z,99978.78
2022-12-07T02:30:34.918Z,99977.53
2022-12-07T02:33:07.578Z,99977.13
2022-12-07T02:35:52.301Z,99971.47
2022-12-07T02:38:23.373Z,99965.03
2022-12-07T02:40:55.418Z,99962.94
2022-12-07T02:44:11.911Z,99962.63
2022-12-07T02:46:42.182Z,99954.81
2022-12-07T02:49:09.389Z,99954.94
2022-12-07T02:51:42.662Z,99939.66
2022-12-07T02:54:19.957Z,99958.69
2022-12-07T02:56:52.206Z,99950.34
2022-12-07T02:59:48.721Z,99944.97
2022-12-07T03:02:23.568Z,99939.25
2022-12-07T03:05:16.156Z,99935.13
2022-12-07T03:07:53.080Z,99946.25
2022-12-07T03:10:23.593Z,99940.41
2022-12-07T03:13:08.318Z,99929.59
2022-12-07T03:15:48.921Z,99923.03
2022-12-07T03:18:19.969Z,99913.03
2022-12-07T03:20:47.958Z,99922.72
2022-12-07T03:23:16.553Z,99927.63
2022-12-07T03:25:46.866Z,99924.47
2022-12-07T03:28:15.751Z,99924.56
2022-12-07T03:31:03.228Z,99927.41
2022-12-07T03:33:41.177Z,99918.75
2022-12-07T03:36:09.444Z,99918.69
2022-12-07T03:38:42.170Z,99918.09
2022-12-07T03:41:24.149Z,99917.06
2022-12-07T03:43:50.669Z,99920.63
2022-12-07T03:46:44.480Z,99911.16
2022-12-07T03:49:22.690Z,99909.34
2022-12-07T03:52:08.143Z,99902.13
2022-12-07T03:55:04.305Z,99900.03
2022-12-07T03:57:31.538Z,99897.91
2022-12-07T03:59:58.703Z,99890.91
2022-12-07T04:02:27.794Z,99891.53
2022-12-07T04:04:56.414Z,99887.72
2022-12-07T04:07:22.876Z,99881.59
2022-12-07T04:09:49.362Z,99877.69
2022-12-07T04:12:15.890Z,99871.69
2022-12-07T04:14:42.328Z,99874.66
2022-12-07T04:17:09.658Z,99866.66
2022-12-07T04:19:36.118Z,99871.84
2022-12-07T04:22:04.452Z,99864.88
2022-12-07T04:24:30.973Z,99867.47
2022-12-07T04:26:57.478Z,99870.63
2022-12-07T04:29:24.013Z,99871.69
2022-12-07T04:31:50.653Z,99867.53
2022-12-07T04:34:17.509Z,99864.94
2022-12-07T04:36:44.403Z,99867.47
2022-12-07T04:39:30.057Z,99869.91
2022-12-07T04:41:57.363Z,99862.50
2022-12-07T04:44:24.902Z,99862.72
2022-12-07T04:46:52.030Z,99852.91
2022-12-07T04:49:18.583Z,99855.88
2022-12-07T04:51:45.811Z,99850.84
2022-12-07T04:54:13.375Z,99849.53
2022-12-07T04:56:39.885Z,99854.56
2022-12-07T04:59:06.500Z,99851.28
2022-12-07T05:01:33.426Z,99848.44
2022-12-07T05:04:00.222Z,99844.59
2022-12-07T05:06:26.765Z,99837.09
2022-12-07T05:08:53.324Z,99833.03
2022-12-07T05:11:38.784Z,99832.44
2022-12-07T05:14:08.099Z,99835.50
2022-12-07T05:16:34.586Z,99834.38
2022-12-07T05:19:01.094Z,99827.66
2022-12-07T05:21:27.549Z,99830.25
2022-12-07T05:23:53.954Z,99824.56
2022-12-07T05:26:20.468Z,99828.91
2022-12-07T05:28:51.501Z,99821.75
2022-12-07T05:31:18.032Z,99830.91
2022-12-07T05:33:44.465Z,99831.00
2022-12-07T05:36:10.934Z,99829.25
2022-12-07T05:38:37.350Z,99825.19
2022-12-07T05:41:05.178Z,99829.19
2022-12-07T05:43:31.735Z,99826.81
2022-12-07T05:45:58.776Z,99821.75
2022-12-07T05:48:25.912Z,99820.41
2022-12-07T05:50:53.078Z,99815.34
2022-12-07T05:53:23.008Z,99813.34
2022-12-07T05:55:49.939Z,99816.56
2022-12-07T05:58:34.825Z,99807.63
2022-12-07T06:01:01.257Z,99814.31
2022-12-07T06:03:27.991Z,99812.94
2022-12-07T06:05:54.773Z,99812.00
2022-12-07T06:08:21.354Z,99807.13
2022-12-07T06:11:08.620Z,99814.97
2022-12-07T06:13:36.623Z,99806.28
2022-12-07T06:16:03.052Z,99807.69
2022-12-07T06:18:29.501Z,99801.97
2022-12-07T06:20:55.933Z,99799.22
2022-12-07T06:23:22.366Z,99793.88
2022-12-07T06:25:48.820Z,99794.59
2022-12-07T06:28:15.269Z,99790.94
2022-12-07T06:30:41.678Z,99783.53
2022-12-07T06:33:08.131Z,99792.97
2022-12-07T06:35:34.885Z,99784.59
2022-12-07T06:38:01.322Z,99777.03
2022-12-07T06:40:27.788Z,99771.13
2022-12-07T06:42:54.509Z,99772.81
2022-12-07T06:45:20.971Z,99777.09
2022-12-07T06:47:47.477Z,99771.38
2022-12-07T06:50:14.274Z,99772.47
2022-12-07T06:52:40.709Z,99769.44
2022-12-07T06:55:07.453Z,99770.38
2022-12-07T06:57:33.874Z,99772.03
2022-12-07T07:00:00.813Z,99771.13
2022-12-07T07:02:27.710Z,99768.97
2022-12-07T07:04:54.221Z,99771.38
2022-12-07T07:07:20.665Z,99766.50
2022-12-07T07:09:47.130Z,99773.56
2022-12-07T07:12:13.571Z,99770.44
2022-12-07T07:14:40.085Z,99771.91
2022-12-07T07:17:07.342Z,99775.31
2022-12-07T07:19:33.889Z,99778.34
2022-12-07T07:22:00.332Z,99770.00
2022-12-07T07:24:27.182Z,99764.97
2022-12-07T07:26:53.625Z,99763.22
2022-12-07T07:29:20.037Z,99766.19
2022-12-07T07:31:46.582Z,99769.66
2022-12-07T07:34:13.030Z,99756.44
2022-12-07T07:36:40.840Z,99768.41
2022-12-07T07:39:07.308Z,99763.66
2022-12-07T07:41:52.875Z,99761.63
2022-12-07T07:44:19.319Z,99758.75
2022-12-07T07:46:45.751Z,99751.09
2022-12-07T07:49:12.197Z,99750.44
2022-12-07T07:51:38.650Z,99752.78
2022-12-07T07:54:05.116Z,99743.59
2022-12-07T07:56:31.520Z,99750.16
2022-12-07T07:58:58.011Z,99745.50
2022-12-07T08:01:24.534Z,99754.19
2022-12-07T08:03:51.127Z,99747.81
2022-12-07T08:06:17.590Z,99740.34
2022-12-07T08:08:44.001Z,99743.00
2022-12-07T08:11:10.766Z,99734.03
2022-12-07T08:13:37.444Z,99746.00
2022-12-07T08:16:09.641Z,99739.78
2022-12-07T08:18:37.698Z,99742.25
2022-12-07T08:21:04.804Z,99734.34
2022-12-07T08:23:37.572Z,99738.81
2022-12-07T08:26:08.311Z,99736.91
2022-12-07T08:28:34.917Z,99742.19
2022-12-07T08:31:02.778Z,99742.56
2022-12-07T08:33:29.334Z,99735.13
2022-12-07T08:35:55.837Z,99744.09
2022-12-07T08:38:25.060Z,99741.78
2022-12-07T08:40:57.676Z,99738.75
2022-12-07T08:43:24.264Z,99743.28
2022-12-07T08:45:59.301Z,99743.91
2022-12-07T08:48:26.321Z,99736.28
2022-12-07T08:50:53.070Z,99740.84
2022-12-07T08:53:19.551Z,99735.91
2022-12-07T08:55:49.181Z,99736.00
2022-12-07T08:58:15.748Z,99738.66
2022-12-07T09:00:43.761Z,99734.88
2022-12-07T09:03:10.190Z,99728.91
2022-12-07T09:05:36.643Z,99728.66
2022-12-07T09:08:03.269Z,99718.31
2022-12-07T09:10:30.550Z,99717.44
2022-12-07T09:12:57.148Z,99708.56
2022-12-07T09:15:23.625Z,99720.59
2022-12-07T09:17:52.336Z,99715.72
2022-12-07T09:20:20.155Z,99719.09
2022-12-07T09:22:49.856Z,99724.56
2022-12-07T09:25:18.609Z,99727.78
2022-12-07T09:27:45.135Z,99727.03
2022-12-07T09:30:11.693Z,99727.69
2022-12-07T09:32:38.247Z,99720.19
2022-12-07T09:35:04.849Z,99718.19
2022-12-07T09:37:35.992Z,99715.84
2022-12-07T09:40:03.742Z,99718.13
2022-12-07T09:42:41.238Z,99726.13
2022-12-07T09:45:14.167Z,99722.56
2022-12-07T09:47:40.797Z,99727.44
2022-12-07T09:50:14.695Z,99722.75
2022-12-07T09:52:41.530Z,99730.25
2022-12-07T09:55:13.086Z,99721.91
2022-12-07T09:57:40.216Z,99723.81
2022-12-07T10:00:16.096Z,99725.09
2022-12-07T10:02:46.924Z,99724.06
2022-12-07T10:05:22.067Z,99724.81
2022-12-07T10:07:50.549Z,99732.78
2022-12-07T10:10:22.342Z,99723.69
2022-12-07T10:13:01.794Z,99731.13
2022-12-07T10:15:51.095Z,99734.25
2022-12-07T10:18:40.123Z,99731.66
2022-12-07T10:21:11.172Z,99722.91
2022-12-07T10:23:39.740Z,99722.44
2022-12-07T10:26:36.357Z,99719.66
2022-12-07T10:29:15.923Z,99711.50
2022-12-07T10:31:43.070Z,99711.97
2022-12-07T10:34:21.780Z,99713.38
2022-12-07T10:36:48.237Z,99704.03
2022-12-07T10:39:22.909Z,99708.06
2022-12-07T10:42:02.979Z,99705.97
2022-12-07T10:44:33.981Z,99709.53
2022-12-07T10:47:30.371Z,99698.38
2022-12-07T10:50:18.757Z,99693.94
2022-12-07T10:53:06.828Z,99702.22
2022-12-07T10:56:10.434Z,99698.97
2022-12-07T10:58:52.189Z,99696.22
2022-12-07T11:01:24.715Z,99692.53
2022-12-07T11:04:22.451Z,99690.56
2022-12-07T11:06:53.155Z,99683.34
2022-12-07T11:10:07.728Z,99672.97
2022-12-07T11:12:39.413Z,99678.44
2022-12-07T11:15:20.468Z,99673.41
2022-12-07T11:17:54.990Z,99668.06
2022-12-07T11:20:24.325Z,99670.81
2022-12-07T11:23:13.956Z,99675.50
2022-12-07T11:25:57.793Z,99664.66
2022-12-07T11:28:28.542Z,99664.22
2022-12-07T11:31:13.420Z,99664.06
2022-12-07T11:33:47.172Z,99651.28
2022-12-07T11:36:39.773Z,99655.13
2022-12-07T11:39:25.117Z,99647.72
2022-12-07T11:41:58.148Z,99645.84
2022-12-07T11:44:33.268Z,99649.97
2022-12-07T11:47:06.380Z,99647.09
2022-12-07T11:49:43.727Z,99638.09
2022-12-07T11:52:25.882Z,99644.66
2022-12-07T11:54:54.534Z,99643.84
2022-12-07T11:57:37.844Z,99646.53
2022-12-07T12:00:16.642Z,99635.22
2022-12-07T12:03:08.740Z,99636.34
2022-12-07T12:05:35.298Z,99631.25
2022-12-07T12:11:19.339Z,99621.13
2022-12-07T12:17:02.497Z,99617.22
2022-12-07T12:19:53.734Z,99622.91
2022-12-07T12:22:30.387Z,99622.91
2022-12-07T12:24:57.600Z,99618.00
2022-12-07T12:27:47.119Z,99607.91
2022-12-07T12:30:33.925Z,99606.25
2022-12-07T12:33:06.152Z,99600.66
2022-12-07T12:35:36.284Z,99597.88
2022-12-07T12:38:28.294Z,99586.75
2022-12-07T12:40:56.827Z,99597.56
2022-12-07T12:43:50.401Z,99585.22
2022-12-07T12:46:37.843Z,99576.72
2022-12-07T12:49:20.176Z,99578.66
2022-12-07T12:52:04.621Z,99588.22
2022-12-07T12:54:36.572Z,99571.84
2022-12-07T12:57:08.740Z,99573.44
2022-12-07T12:59:39.043Z,99572.22
2022-12-07T13:02:38.935Z,99565.31
2022-12-07T13:05:48.367Z,99552.78
2022-12-07T13:08:29.355Z,99558.91
2022-12-07T13:11:25.329Z,99554.97
2022-12-07T13:13:51.769Z,99548.25
2022-12-07T13:16:18.197Z,99552.69
2022-12-07T13:18:45.253Z,99547.81
2022-12-07T13:21:11.650Z,99547.31
2022-12-07T13:24:01.199Z,99545.59
2022-12-07T13:26:40.808Z,99549.88
2022-12-07T13:29:19.074Z,99547.63
2022-12-07T13:31:47.194Z,99547.44
2022-12-07T13:34:32.155Z,99560.00
2022-12-07T13:37:06.360Z,99541.84
2022-12-07T13:39:36.103Z,99547.66
2022-12-07T13:42:27.909Z,99552.22
2022-12-07T13:44:55.133Z,99531.91
2022-12-07T13:47:44.262Z,99540.00
2022-12-07T13:50:39.548Z,99540.88
2022-12-07T13:53:16.393Z,99537.41
2022-12-07T13:55:52.448Z,99531.75
2022-12-07T13:58:40.572Z,99534.81
2022-12-07T14:01:09.184Z,99536.16
2022-12-07T14:03:37.296Z,99532.63
2022-12-07T14:06:08.973Z,99531.69
2022-12-07T14:08:36.589Z,99532.00
2022-12-07T14:11:05.519Z,99528.59
2022-12-07T14:13:32.988Z,99522.69
2022-12-07T14:16:00.053Z,99514.75
2022-12-07T14:18:36.571Z,99514.44
2022-12-07T14:21:25.706Z,99510.13
2022-12-07T14:24:12.595Z,99506.28
2022-12-07T14:26:40.937Z,99509.97
2022-12-07T14:29:25.990Z,99508.88
2022-12-07T14:31:59.904Z,99502.94
2022-12-07T14:34:26.844Z,99509.34
2022-12-07T14:36:53.820Z,99518.31
2022-12-07T14:39:20.527Z,99513.22
2022-12-07T14:41:53.017Z,99512.88
2022-12-07T14:44:24.720Z,99518.84
2022-12-07T14:49:43.713Z,99515.63
2022-12-07T14:55:37.138Z,99516.53
2022-12-07T14:58:14.747Z,99518.41
2022-12-07T15:00:41.415Z,99514.00
2022-12-07T15:03:09.039Z,99515.50
2022-12-07T15:05:35.911Z,99509.09
2022-12-07T15:08:02.571Z,99510.91
2022-12-07T15:10:32.867Z,99508.00
2022-12-07T15:13:22.629Z,99514.56
2022-12-07T15:15:53.862Z,99507.94
2022-12-07T15:18:20.801Z,99514.84
2022-12-07T15:20:47.642Z,99510.13
2022-12-07T15:23:14.780Z,99513.66
2022-12-07T15:25:42.345Z,99508.88
2022-12-07T15:28:08.790Z,99502.00
2022-12-07T15:30:35.350Z,99508.59
2022-12-07T15:33:02.064Z,99522.28
2022-12-07T15:35:28.550Z,99512.06
2022-12-07T15:37:55.139Z,99506.47
2022-12-07T15:40:21.581Z,99510.13
2022-12-07T15:42:49.490Z,99507.81
2022-12-07T15:45:15.932Z,99498.84
2022-12-07T15:50:30.887Z,99499.59
2022-12-07T15:52:57.333Z,99494.97
2022-12-07T15:55:23.900Z,99497.91
2022-12-07T15:57:50.721Z,99491.03
2022-12-07T16:00:17.773Z,99484.00
2022-12-07T16:02:46.755Z,99498.03
2022-12-07T16:05:13.516Z,99495.59
2022-12-07T16:07:40.266Z,99496.06
2022-12-07T16:10:07.319Z,99500.00
2022-12-07T16:12:33.786Z,99503.38
2022-12-07T16:15:01.835Z,99495.88
2022-12-07T16:17:28.646Z,99495.75
2022-12-07T16:19:55.101Z,99503.53
2022-12-07T16:22:21.885Z,99495.84
2022-12-07T16:24:48.382Z,99492.84
2022-12-07T16:27:14.863Z,99489.75
2022-12-07T16:29:41.316Z,99490.19
2022-12-07T16:32:07.814Z,99497.50
2022-12-07T16:34:34.348Z,99495.84
2022-12-07T16:37:05.239Z,99488.84
2022-12-07T16:39:32.045Z,99498.44
2022-12-07T16:41:58.513Z,99484.13
2022-12-07T16:44:25.198Z,99494.91
2022-12-07T16:46:51.701Z,99497.66
2022-12-07T16:49:19.461Z,99493.94
2022-12-07T16:51:47.350Z,99491.06
2022-12-07T16:54:13.874Z,99493.53
2022-12-07T16:56:40.516Z,99482.47
2022-12-07T16:59:06.949Z,99490.63
2022-12-07T17:01:36.105Z,99480.53
2022-12-07T17:04:03.537Z,99488.59
2022-12-07T17:06:30.303Z,99489.53
2022-12-07T17:08:57.463Z,99479.34
2022-12-07T17:11:27.009Z,99477.94
2022-12-07T17:14:12.799Z,99486.38
2022-12-07T17:16:50.184Z,99483.53
2022-12-07T17:19:18.918Z,99475.81
2022-12-07T17:22:13.604Z,99467.78
2022-12-07T17:24:42.333Z,99483.31
2022-12-07T17:27:09.209Z,99477.25
2022-12-07T17:29:44.167Z,99468.47
2022-12-07T17:32:48.771Z,99487.06
2022-12-07T17:35:16.806Z,99477.09
2022-12-07T17:38:03.556Z,99476.53
2022-12-07T17:40:30.094Z,99482.59
2022-12-07T17:42:57.963Z,99489.00
2022-12-07T17:45:24.480Z,99477.53
2022-12-07T17:48:19.387Z,99479.25
2022-12-07T17:54:13.205Z,99478.72
2022-12-07T17:56:39.739Z,99473.56
2022-12-07T17:59:09.182Z,99471.28
2022-12-07T18:01:39.385Z,99478.59
2022-12-07T18:04:06.052Z,99479.94
2022-12-07T18:06:40.776Z,99482.75
2022-12-07T18:09:07.586Z,99488.09
2022-12-07T18:11:34.251Z,99488.50
2022-12-07T18:14:00.752Z,99493.28
2022-12-07T18:16:29.637Z,99492.38
2022-12-07T18:18:59.685Z,99482.31
2022-12-07T18:21:28.808Z,99491.47
2022-12-07T18:24:15.656Z,99488.25
2022-12-07T18:26:42.678Z,99492.88
2022-12-07T18:29:11.019Z,99486.31
2022-12-07T18:31:37.589Z,99500.09
2022-12-07T18:34:12.148Z,99491.72
2022-12-07T18:36:43.852Z,99490.31
2022-12-07T18:39:10.373Z,99479.03
2022-12-07T18:41:38.190Z,99494.13
2022-12-07T18:44:05.372Z,99491.97
2022-12-07T18:46:32.732Z,99485.56
2022-12-07T18:49:00.546Z,99487.38
2022-12-07T18:51:32.320Z,99488.19
2022-12-07T18:54:01.061Z,99493.84
2022-12-07T18:56:27.877Z,99487.44
2022-12-07T18:59:15.411Z,99492.19
2022-12-07T19:01:43.146Z,99487.25
2022-12-07T19:04:09.835Z,99492.31
2022-12-07T19:06:36.949Z,99491.47
2022-12-07T19:09:04.109Z,99487.72
2022-12-07T19:11:50.916Z,99494.13
2022-12-07T19:14:21.989Z,99491.03
2022-12-07T19:16:50.461Z,99498.06
2022-12-07T19:19:19.067Z,99497.63
2022-12-07T19:21:45.845Z,99501.38
2022-12-07T19:24:12.550Z,99501.56
2022-12-07T19:26:39.283Z,99507.75
2022-12-07T19:29:06.187Z,99497.03
2022-12-07T19:31:32.800Z,99503.47
2022-12-07T19:33:59.333Z,99505.28
2022-12-07T19:36:25.789Z,99492.94
2022-12-07T19:38:52.214Z,99498.13
2022-12-07T19:41:34.004Z,99499.19
2022-12-07T19:44:01.156Z,99498.00
2022-12-07T19:46:30.926Z,99502.97
2022-12-07T19:48:58.139Z,99496.72
2022-12-07T19:51:25.034Z,99492.19
2022-12-07T19:53:51.479Z,99495.81
2022-12-07T19:56:19.712Z,99492.50
2022-12-07T19:58:48.042Z,99500.41
2022-12-07T20:01:15.337Z,99503.00
2022-12-07T20:03:41.986Z,99501.31
2022-12-07T20:06:14.458Z,99504.03
2022-12-07T20:08:41.336Z,99500.69
2022-12-07T20:11:31.404Z,99488.81
2022-12-07T20:13:57.992Z,99505.34
2022-12-07T20:16:25.043Z,99500.75
2022-12-07T20:18:57.599Z,99499.03
2022-12-07T20:21:24.682Z,99500.75
2022-12-07T20:23:51.246Z,99505.03
2022-12-07T20:26:17.873Z,99504.22
2022-12-07T20:28:46.403Z,99508.91
2022-12-07T20:31:15.970Z,99499.22
2022-12-07T20:33:48.164Z,99515.31
2022-12-07T20:36:16.629Z,99516.50
2022-12-07T20:38:44.205Z,99508.03
2022-12-07T20:41:32.631Z,99509.59
2022-12-07T20:44:00.240Z,99511.72
2022-12-07T20:46:28.178Z,99511.03
2022-12-07T20:48:55.254Z,99523.44
2022-12-07T20:51:22.890Z,99520.25
2022-12-07T20:53:49.321Z,99515.88
2022-12-07T20:56:28.773Z,99522.09
2022-12-07T20:59:00.410Z,99520.84
2022-12-07T21:01:26.954Z,99520.06
2022-12-07T21:03:57.647Z,99522.47
2022-12-07T21:06:24.736Z,99535.06
2022-12-07T21:08:54.209Z,99513.88
2022-12-07T21:11:21.082Z,99526.91
2022-12-07T21:13:47.814Z,99533.25
2022-12-07T21:16:23.591Z,99527.47
2022-12-07T21:18:50.596Z,99541.56
2022-12-07T21:21:19.365Z,99544.25
2022-12-07T21:23:48.014Z,99541.00
2022-12-07T21:26:19.395Z,99544.84
2022-12-07T21:28:47.981Z,99550.47
2022-12-07T21:31:15.448Z,99541.84
2022-12-07T21:33:44.152Z,99529.09
2022-12-07T21:36:16.402Z,99543.88
2022-12-07T21:38:42.892Z,99554.13
2022-12-07T21:41:26.383Z,99552.78
2022-12-07T21:43:53.117Z,99543.97
2022-12-07T21:46:20.983Z,99558.06
2022-12-07T21:48:55.846Z,99559.59
2022-12-07T21:51:23.531Z,99565.53
2022-12-07T21:53:51.580Z,99566.47
2022-12-07T21:56:21.219Z,99563.81
2022-12-07T21:58:48.608Z,99569.66
2022-12-07T22:01:20.495Z,99569.16
2022-12-07T22:03:47.683Z,99574.06
2022-12-07T22:06:16.687Z,99580.28
2022-12-07T22:08:44.065Z,99575.91
2022-12-07T22:11:11.330Z,99560.84
2022-12-07T22:13:57.233Z,99575.97
2022-12-07T22:16:24.027Z,99579.25
2022-12-07T22:18:50.589Z,99585.00
2022-12-07T22:21:17.040Z,99580.38
2022-12-07T22:23:43.493Z,99580.47
2022-12-07T22:26:11.618Z,99574.94
2022-12-07T22:28:39.072Z,99573.38
2022-12-07T22:31:08.781Z,99577.31
2022-12-07T22:33:36.028Z,99581.81
2022-12-07T22:36:03.017Z,99588.06
2022-12-07T22:38:29.494Z,99609.50
2022-12-07T22:40:57.109Z,99588.91
2022-12-07T22:43:23.736Z,99595.81
2022-12-07T22:45:57.311Z,99594.84
2022-12-07T22:48:24.441Z,99601.28
2022-12-07T22:50:52.611Z,99603.22
2022-12-07T22:53:20.046Z,99608.31
2022-12-07T22:55:46.586Z,99595.13
2022-12-07T22:58:13.053Z,99601.47
2022-12-07T23:00:39.623Z,99608.56
2022-12-07T23:03:06.278Z,99605.31
2022-12-07T23:05:33.113Z,99605.81
2022-12-07T23:07:59.715Z,99603.03
2022-12-07T23:10:26.354Z,99598.31
2022-12-07T23:13:11.278Z,99603.22
2022-12-07T23:15:38.236Z,99614.72
2022-12-07T23:18:04.884Z,99620.28
2022-12-07T23:20:31.448Z,99615.13
2022-12-07T23:22:58.242Z,99624.88
2022-12-07T23:25:24.764Z,99612.41
2022-12-07T23:27:51.225Z,99616.72
2022-12-07T23:30:17.942Z,99619.97
2022-12-07T23:32:44.387Z,99627.09
2022-12-07T23:35:10.923Z,99633.03
2022-12-07T23:37:37.369Z,99630.63
2022-12-07T23:40:04.026Z,99645.28
2022-12-07T23:42:30.493Z,99635.13
2022-12-07T23:44:57.147Z,99634.25
2022-12-07T23:47:23.583Z,99639.03
2022-12-07T23:49:50.030Z,99640.28
2022-12-07T23:52:16.513Z,99641.91
2022-12-07T23:54:42.967Z,99636.94
2022-12-07T23:57:09.445Z,99647.75
2022-12-07T23:59:36.132Z,99655.16
